Terminal Aerodrome Forecast
Issued by NWS

Home | Current Version | Previous Version | Text Only | Print | Product List | Glossary On
Versions: 1 2 3 4 5 6 7 8 9 10 11 12 13 14 15 16 17
382
FTUS42 KTAE 281414 AAB
TAFDHN
TAF AMD
KDHN 281414Z 2814/0112 VRB05KT 3SM BR BKN004
     FM281600 18012KT P6SM SCT030 BKN200
     FM010000 19006KT P6SM FEW200=

USA.gov is the U.S. government's official web portal to all federal, state and local government web resources and services.